Time;durP1;ratioP1;P1;durP2;ratioP2;P2;SDS_P1;SDS_P2;PMS_P1;PMS_P2;Temp;Humidity;BMP_temperature;BMP_pressure;BME280_temperature;BME280_humidity;BME280_pressure;Samples;Min_cycle;Max_cycle;Signal;HPM_P1;HPM_P2
2022/01/13 00:00:34;;;;;;;41.45;23.27;;;;;;;6.87;55.11;101605.55;2261571;86;25786;-84
2022/01/13 00:03:55;;;;;;;47.85;26.48;;;;;;;6.87;55.05;101600.36;2239070;87;25828;-86
2022/01/13 00:07:19;;;;;;;49.70;25.68;;;;;;;6.86;55.03;101601.18;2265119;86;26261;-88
2022/01/13 00:10:40;;;;;;;42.58;24.37;;;;;;;6.84;54.96;101608.84;2256881;86;25886;-86
2022/01/13 00:17:56;;;;;;;49.58;25.20;;;;;;;6.83;54.85;101599.70;2244833;86;25725;-85
2022/01/13 00:21:12;;;;;;;52.50;25.68;;;;;;;6.82;54.79;101588.86;2243221;87;25789;-85
2022/01/13 00:24:21;;;;;;;45.70;25.57;;;;;;;6.82;54.72;101578.48;2261104;86;26510;-86
2022/01/13 00:27:50;;;;;;;45.92;25.50;;;;;;;6.81;54.65;101570.19;2254038;86;25432;-86
2022/01/13 00:31:07;;;;;;;47.45;25.55;;;;;;;6.82;54.57;101581.08;2240541;86;25312;-86
2022/01/13 00:34:29;;;;;;;43.95;24.98;;;;;;;6.80;54.49;101593.93;2214397;86;25685;-86
2022/01/13 00:37:50;;;;;;;43.65;24.40;;;;;;;6.81;54.42;101581.45;2262471;86;25638;-87
2022/01/13 00:41:11;;;;;;;43.73;24.32;;;;;;;6.80;54.34;101562.83;2272477;86;25863;-85
2022/01/13 00:44:38;;;;;;;46.10;24.55;;;;;;;6.79;54.22;101549.39;2263342;86;25686;-87
2022/01/13 00:47:59;;;;;;;40.08;23.83;;;;;;;6.79;54.15;101543.31;2243980;86;25702;-85
2022/01/13 00:51:24;;;;;;;40.73;24.23;;;;;;;6.77;54.06;101540.61;2216938;86;25777;-86
2022/01/13 00:54:45;;;;;;;45.58;23.92;;;;;;;6.77;54.00;101534.14;2251098;86;25654;-85
2022/01/13 00:58:09;;;;;;;46.08;23.00;;;;;;;6.78;53.92;101532.43;2232983;86;25790;-85
2022/01/13 01:01:31;;;;;;;40.73;23.42;;;;;;;6.78;53.84;101548.91;2243146;86;25736;-86
2022/01/13 01:04:52;;;;;;;44.25;24.25;;;;;;;6.78;53.78;101586.86;2256024;87;25805;-86
2022/01/13 01:08:14;;;;;;;40.75;22.52;;;;;;;6.77;53.70;101601.52;2251706;85;25750;-87
2022/01/13 01:11:36;;;;;;;39.65;22.30;;;;;;;6.78;53.62;101562.23;2263507;86;25710;-86
2022/01/13 01:14:58;;;;;;;40.33;21.93;;;;;;;6.78;53.55;101530.77;2227149;86;25680;-85
2022/01/13 01:18:32;;;;;;;37.30;21.48;;;;;;;6.78;53.47;101507.80;2250826;86;25980;-86
2022/01/13 01:22:13;;;;;;;40.05;22.20;;;;;;;6.78;53.41;101493.18;2263147;85;25641;-84
2022/01/13 01:28:45;;;;;;;34.23;20.15;;;;;;;6.77;53.25;101482.30;2259139;86;25209;-84
2022/01/13 01:32:00;;;;;;;39.03;22.93;;;;;;;6.76;53.17;101472.75;2260614;86;25850;-85
2022/01/13 01:35:25;;;;;;;37.75;20.85;;;;;;;6.76;53.12;101493.48;2257721;85;25718;-84
2022/01/13 01:38:52;;;;;;;33.55;20.20;;;;;;;6.74;53.07;101495.08;2234106;86;26180;-84
2022/01/13 01:42:11;;;;;;;37.38;21.37;;;;;;;6.73;53.01;101497.59;2252809;86;25664;-83
2022/01/13 01:45:41;;;;;;;38.28;20.72;;;;;;;6.72;52.95;101504.48;2262981;87;25586;-87
2022/01/13 01:48:58;;;;;;;38.70;21.12;;;;;;;6.73;52.92;101526.11;2251662;87;25747;-84
2022/01/13 01:52:20;;;;;;;32.40;20.92;;;;;;;6.72;52.89;101530.41;2260572;86;25726;-84
2022/01/13 01:55:43;;;;;;;38.75;19.65;;;;;;;6.73;52.84;101511.45;2242108;86;25774;-85
2022/01/13 01:59:08;;;;;;;32.48;19.15;;;;;;;6.72;52.78;101488.94;2262611;86;25600;-84
2022/01/13 02:02:30;;;;;;;29.75;18.32;;;;;;;6.74;52.75;101481.23;2262421;86;25773;-85
2022/01/13 02:05:52;;;;;;;33.98;19.25;;;;;;;6.73;52.70;101496.30;2257987;86;25892;-85
2022/01/13 02:09:17;;;;;;;33.65;19.32;;;;;;;6.71;52.65;101508.27;2261232;86;25837;-84
2022/01/13 02:12:43;;;;;;;37.25;19.85;;;;;;;6.74;52.61;101521.00;2266489;86;25743;-85
2022/01/13 02:16:05;;;;;;;32.60;18.87;;;;;;;6.75;52.59;101513.73;2236197;87;25768;-85
2022/01/13 02:19:26;;;;;;;32.30;18.45;;;;;;;6.75;52.57;101516.33;2235655;86;25895;-84
2022/01/13 02:22:48;;;;;;;33.63;18.55;;;;;;;6.77;52.53;101491.78;2254995;87;25668;-85
2022/01/13 02:26:14;;;;;;;38.20;18.52;;;;;;;6.76;52.48;101484.41;2210860;86;25592;-86
2022/01/13 02:29:35;;;;;;;35.10;18.23;;;;;;;6.78;52.46;101487.08;2255742;86;25269;-86
2022/01/13 02:32:57;;;;;;;30.72;18.67;;;;;;;6.77;52.42;101489.19;2260762;86;25575;-85
2022/01/13 02:36:20;;;;;;;29.87;17.48;;;;;;;6.76;52.38;101488.70;2228422;85;26113;-85
2022/01/13 02:39:41;;;;;;;37.80;19.40;;;;;;;6.77;52.37;101496.96;2254578;87;25785;-84
2022/01/13 02:43:06;;;;;;;33.70;18.77;;;;;;;6.78;52.33;101510.40;2254753;86;25690;-84
2022/01/13 02:50:04;;;;;;;31.65;17.70;;;;;;;6.76;52.27;101503.84;2260906;86;25752;-85
2022/01/13 02:53:26;;;;;;;34.27;17.85;;;;;;;6.76;52.26;101506.44;2252421;87;25710;-85
2022/01/13 02:56:48;;;;;;;30.12;17.75;;;;;;;6.77;52.24;101498.26;2252441;87;25774;-86
2022/01/13 03:00:12;;;;;;;30.62;18.15;;;;;;;6.77;52.23;101498.26;2259005;86;25725;-85
2022/01/13 03:03:35;;;;;;;34.75;18.25;;;;;;;6.77;52.20;101481.00;2248779;86;25607;-86
2022/01/13 03:06:57;;;;;;;33.53;18.23;;;;;;;6.76;52.19;101476.64;2249076;87;26628;-85
2022/01/13 03:10:18;;;;;;;35.52;18.12;;;;;;;6.75;52.17;101464.49;2248829;86;25723;-87
2022/01/13 03:13:40;;;;;;;32.48;17.30;;;;;;;6.77;52.18;101471.93;2252014;87;26084;-85
2022/01/13 03:17:01;;;;;;;32.45;17.35;;;;;;;6.79;52.17;101466.85;2253346;87;25813;-84
2022/01/13 03:20:24;;;;;;;30.32;16.10;;;;;;;6.79;52.15;101452.59;2263634;86;25693;-85
2022/01/13 03:23:51;;;;;;;32.93;16.82;;;;;;;6.79;52.15;101434.45;2250427;86;25914;-85
2022/01/13 03:27:19;;;;;;;36.63;18.57;;;;;;;6.80;52.14;101430.63;2257520;86;25808;-84
2022/01/13 03:30:35;;;;;;;32.67;17.87;;;;;;;6.79;52.11;101426.27;2262159;86;25627;-88
2022/01/13 03:33:57;;;;;;;35.00;17.40;;;;;;;6.80;52.14;101443.59;2263111;86;25886;-84
2022/01/13 03:37:20;;;;;;;32.08;17.05;;;;;;;6.81;52.13;101440.59;2259428;85;25645;-85
2022/01/13 03:40:42;;;;;;;31.20;16.35;;;;;;;6.82;52.12;101438.52;2210189;86;25278;-85
2022/01/13 03:44:08;;;;;;;27.93;14.83;;;;;;;6.80;52.12;101425.45;2263345;86;25799;-84
2022/01/13 03:47:29;;;;;;;29.87;16.32;;;;;;;6.82;52.12;101410.00;2245408;86;25955;-85
2022/01/13 03:50:51;;;;;;;31.07;16.60;;;;;;;6.82;52.13;101400.93;2264906;86;25699;-85
2022/01/13 03:54:36;;;;;;;32.00;15.43;;;;;;;6.82;52.12;101386.27;2258281;85;25630;-87
2022/01/13 03:58:51;;;;;;;31.02;15.10;;;;;;;6.82;52.13;101373.72;2268224;86;25643;-88
2022/01/13 04:02:14;;;;;;;30.08;14.43;;;;;;;6.82;52.13;101376.30;2259454;86;25882;-85
2022/01/13 04:05:58;;;;;;;24.15;14.95;;;;;;;6.81;52.13;101366.72;2253569;86;25618;-84
2022/01/13 04:09:37;;;;;;;27.90;15.15;;;;;;;6.82;52.13;101368.53;2266308;86;25701;-85
2022/01/13 04:12:58;;;;;;;23.83;13.78;;;;;;;6.82;52.13;101364.23;2262739;86;25689;-84
2022/01/13 04:16:31;;;;;;;24.60;14.28;;;;;;;6.82;52.14;101362.05;2231292;86;25800;-87
2022/01/13 04:19:53;;;;;;;24.40;13.50;;;;;;;6.83;52.15;101359.94;2238295;86;25943;-88
2022/01/13 04:23:15;;;;;;;25.35;13.88;;;;;;;6.82;52.17;101353.87;2261698;86;25855;-87
2022/01/13 04:26:43;;;;;;;27.93;13.43;;;;;;;6.83;52.16;101332.72;2258252;86;25777;-87
2022/01/13 04:33:35;;;;;;;23.90;12.50;;;;;;;6.84;52.17;101322.42;2255837;86;25652;-86
2022/01/13 04:36:59;;;;;;;23.77;13.98;;;;;;;6.85;52.19;101319.04;2246386;86;25387;-86
2022/01/13 04:40:21;;;;;;;23.92;13.43;;;;;;;6.85;52.20;101312.94;2257570;87;25629;-87
2022/01/13 04:43:43;;;;;;;25.27;13.00;;;;;;;6.86;52.20;101313.45;2230520;87;25274;-87
2022/01/13 04:47:07;;;;;;;21.85;12.05;;;;;;;6.86;52.22;101315.63;2260178;87;25356;-85
2022/01/13 04:50:28;;;;;;;21.77;12.85;;;;;;;6.88;52.24;101331.66;2232021;86;25682;-84
2022/01/13 04:53:49;;;;;;;20.25;13.08;;;;;;;6.87;52.24;101330.77;2231773;87;25819;-87
2022/01/13 04:57:17;;;;;;;20.85;12.33;;;;;;;6.88;52.24;101320.00;2251597;86;25673;-88
2022/01/13 05:00:38;;;;;;;18.20;11.18;;;;;;;6.89;52.25;101314.02;2256893;86;25831;-88
2022/01/13 05:04:00;;;;;;;21.05;11.48;;;;;;;6.89;52.29;101311.02;2215537;87;25647;-87
2022/01/13 05:07:21;;;;;;;21.23;12.55;;;;;;;6.91;52.27;101305.91;2267648;86;25714;-85
2022/01/13 05:10:42;;;;;;;20.02;12.10;;;;;;;6.91;52.29;101291.65;2236760;86;25662;-86
2022/01/13 05:14:06;;;;;;;19.60;10.88;;;;;;;6.90;52.31;101291.17;2242190;87;25967;-87
2022/01/13 05:21:17;;;;;;;16.32;9.40;;;;;;;6.91;52.37;101316.27;2263205;86;25616;-85
2022/01/13 05:24:30;;;;;;;17.17;9.93;;;;;;;6.90;52.34;101312.80;2224845;86;25969;-86
2022/01/13 05:27:51;;;;;;;15.58;10.48;;;;;;;6.90;52.42;101320.57;2262067;86;26346;-85
2022/01/13 05:31:13;;;;;;;16.17;9.90;;;;;;;6.90;52.45;101305.02;2247241;86;25705;-86
2022/01/13 05:34:34;;;;;;;13.60;9.15;;;;;;;6.90;52.46;101294.65;2260432;86;25718;-84
2022/01/13 05:37:55;;;;;;;15.03;9.20;;;;;;;6.92;52.48;101292.13;2271292;86;25660;-85
2022/01/13 05:41:17;;;;;;;12.43;8.45;;;;;;;6.92;52.50;101293.05;2258020;86;25675;-86
2022/01/13 05:44:38;;;;;;;11.53;7.65;;;;;;;6.90;52.51;101270.44;2279999;86;25857;-85
2022/01/13 05:48:03;;;;;;;12.80;8.15;;;;;;;6.91;52.56;101252.35;2261638;86;25730;-85
2022/01/13 05:51:28;;;;;;;11.55;7.72;;;;;;;6.91;52.55;101256.23;2242244;86;25775;-85
2022/01/13 05:54:51;;;;;;;8.93;7.35;;;;;;;6.91;52.59;101257.95;2238419;87;25648;-86
2022/01/13 05:58:12;;;;;;;10.30;6.85;;;;;;;6.91;52.60;101261.42;2260665;86;26055;-85
2022/01/13 06:01:34;;;;;;;8.38;7.33;;;;;;;6.92;52.61;101256.75;2254948;87;25632;-86
2022/01/13 06:04:55;;;;;;;7.83;6.72;;;;;;;6.91;52.64;101234.20;2257751;86;25707;-86
2022/01/13 06:08:16;;;;;;;7.25;6.22;;;;;;;6.91;52.66;101236.80;2234643;87;25956;-86
2022/01/13 06:11:40;;;;;;;8.33;6.65;;;;;;;6.92;52.66;101237.31;2257200;86;25812;-86
2022/01/13 06:15:08;;;;;;;11.00;6.67;;;;;;;6.93;52.70;101231.71;2258405;86;26290;-84
2022/01/13 06:18:29;;;;;;;9.10;6.72;;;;;;;6.92;52.70;101229.91;2260932;85;25608;-85
2022/01/13 06:21:51;;;;;;;10.20;7.33;;;;;;;6.93;52.71;101228.70;2255494;86;25174;-84
2022/01/13 06:25:15;;;;;;;10.23;6.85;;;;;;;6.94;52.71;101225.70;2254734;86;26075;-86
2022/01/13 06:28:36;;;;;;;6.95;5.87;;;;;;;6.94;52.73;101220.52;2228518;87;25678;-84
2022/01/13 06:31:59;;;;;;;9.60;6.58;;;;;;;6.94;52.76;101198.48;2220247;86;25736;-84
2022/01/13 06:35:25;;;;;;;8.95;6.30;;;;;;;6.93;52.76;101182.05;2257744;87;25751;-86
2022/01/13 06:38:48;;;;;;;7.03;5.87;;;;;;;6.95;52.79;101158.78;2255132;86;26221;-87
2022/01/13 06:42:14;;;;;;;8.53;6.10;;;;;;;6.94;52.79;101146.64;2263120;87;25825;-84
2022/01/13 06:45:35;;;;;;;7.75;6.53;;;;;;;6.93;52.81;101153.95;2268117;86;25710;-85
2022/01/13 06:48:56;;;;;;;7.30;5.55;;;;;;;6.93;52.87;101135.39;2264717;86;25685;-86
2022/01/13 06:52:18;;;;;;;8.05;6.25;;;;;;;6.94;52.86;101138.86;2238726;87;25977;-85
2022/01/13 06:55:39;;;;;;;7.55;5.58;;;;;;;6.94;52.91;101164.38;2263407;85;25614;-86
2022/01/13 06:59:05;;;;;;;9.35;6.33;;;;;;;6.94;52.92;101175.16;2245415;86;26386;-85
2022/01/13 07:02:25;;;;;;;6.17;5.10;;;;;;;6.95;52.93;101170.45;2250747;87;25674;-86
2022/01/13 07:05:47;;;;;;;7.10;5.60;;;;;;;6.97;52.98;101190.88;2206394;86;25724;-85
2022/01/13 07:09:14;;;;;;;5.97;5.45;;;;;;;6.96;52.97;101178.73;2228463;86;25744;-85
2022/01/13 07:12:44;;;;;;;5.28;4.80;;;;;;;6.99;52.98;101189.26;2228652;87;25735;-85
2022/01/13 07:16:05;;;;;;;8.63;5.72;;;;;;;7.00;52.99;101194.92;2264008;86;25767;-86
2022/01/13 07:19:27;;;;;;;6.10;4.12;;;;;;;7.01;52.99;101217.43;2254748;86;25680;-85
2022/01/13 07:22:48;;;;;;;7.30;6.10;;;;;;;7.02;53.01;101195.86;2220603;86;25881;-85
2022/01/13 07:26:10;;;;;;;6.03;5.42;;;;;;;7.04;53.01;101191.66;2250058;87;25794;-85
2022/01/13 07:29:31;;;;;;;7.05;4.83;;;;;;;7.05;52.99;101189.55;2248455;86;26252;-85
2022/01/13 07:32:53;;;;;;;5.30;4.85;;;;;;;7.06;53.02;101190.05;2250080;87;25810;-86
2022/01/13 07:36:14;;;;;;;5.50;5.00;;;;;;;7.07;53.02;101191.41;2229930;87;26289;-87
2022/01/13 07:39:36;;;;;;;5.58;5.08;;;;;;;7.08;53.04;101185.40;2227972;86;25671;-86
2022/01/13 07:42:57;;;;;;;5.97;5.08;;;;;;;7.09;53.06;101188.91;2260675;86;25809;-86
2022/01/13 07:46:19;;;;;;;5.47;4.85;;;;;;;7.13;53.06;101197.73;2235823;86;25653;-85
2022/01/13 07:49:40;;;;;;;6.72;6.00;;;;;;;7.13;53.06;101197.32;2264041;87;25699;-86
2022/01/13 07:53:02;;;;;;;6.72;5.67;;;;;;;7.14;53.06;101223.73;2249620;87;25955;-85
2022/01/13 07:56:27;;;;;;;5.70;5.17;;;;;;;7.15;53.11;101212.94;2259157;86;25638;-85
2022/01/13 07:59:51;;;;;;;6.35;5.75;;;;;;;7.16;53.09;101196.59;2232548;87;25789;-85
2022/01/13 08:03:12;;;;;;;7.97;6.08;;;;;;;7.17;53.11;101191.88;2267875;86;25725;-85
2022/01/13 08:06:36;;;;;;;6.78;6.17;;;;;;;7.18;53.12;101193.23;2246864;86;26257;-85
2022/01/13 08:10:00;;;;;;;7.28;5.92;;;;;;;7.20;53.14;101192.04;2259437;87;25615;-85
2022/01/13 08:13:22;;;;;;;6.42;5.85;;;;;;;7.22;53.12;101195.20;2254794;86;25912;-84
2022/01/13 08:16:47;;;;;;;6.28;5.67;;;;;;;7.23;53.16;101200.86;2229908;86;25813;-85
2022/01/13 08:20:12;;;;;;;6.45;5.95;;;;;;;7.25;53.17;101199.63;2252289;86;25836;-85
2022/01/13 08:23:36;;;;;;;6.97;6.35;;;;;;;7.26;53.20;101207.50;2271882;86;25777;-87
2022/01/13 08:26:58;;;;;;;6.03;5.53;;;;;;;7.27;53.17;101193.70;2265090;86;25751;-87
2022/01/13 08:30:20;;;;;;;6.95;6.25;;;;;;;7.30;53.21;101194.28;2230284;86;25864;-86
2022/01/13 08:33:41;;;;;;;7.65;6.30;;;;;;;7.31;53.18;101190.45;2234448;86;25847;-86
2022/01/13 08:37:05;;;;;;;6.97;6.37;;;;;;;7.33;53.20;101206.11;2260082;86;25671;-87
2022/01/13 08:40:26;;;;;;;9.28;6.40;;;;;;;7.36;53.21;101206.64;2261268;86;26288;-85
2022/01/13 08:43:55;;;;;;;7.85;7.10;;;;;;;7.38;53.22;101211.09;2265267;86;25585;-84
2022/01/13 08:47:16;;;;;;;6.70;6.10;;;;;;;7.39;53.23;101218.09;2253188;86;26213;-87
2022/01/13 08:50:41;;;;;;;8.23;6.67;;;;;;;7.40;53.26;101215.08;2255412;86;25699;-85
2022/01/13 08:54:05;;;;;;;11.48;7.20;;;;;;;7.41;53.27;101210.37;2239794;86;26217;-83
2022/01/13 08:57:38;;;;;;;6.87;6.22;;;;;;;7.42;53.29;101204.35;2242648;86;25635;-86
2022/01/13 09:01:02;;;;;;;8.10;7.30;;;;;;;7.44;53.30;101180.27;2257181;86;25596;-86
2022/01/13 09:04:26;;;;;;;6.75;6.12;;;;;;;7.45;53.31;101173.38;2264022;86;25878;-87
2022/01/13 09:07:51;;;;;;;8.08;7.28;;;;;;;7.48;53.32;101169.63;2259595;86;25318;-85
2022/01/13 09:11:11;;;;;;;6.75;6.15;;;;;;;7.51;53.30;101174.97;2246490;86;25580;-84
2022/01/13 09:14:38;;;;;;;8.05;7.25;;;;;;;7.53;53.28;101177.25;2264518;87;25692;-86
2022/01/13 09:18:06;;;;;;;8.88;6.60;;;;;;;7.55;53.29;101173.89;2226301;86;25685;-91
2022/01/13 09:21:28;;;;;;;7.53;6.62;;;;;;;7.58;53.28;101175.75;2227890;86;25710;-87
2022/01/13 09:39:41;;;;;;;8.83;7.93;;;;;;;7.66;53.38;101171.84;2440442;75;26236;-88
2022/01/13 09:43:08;;;;;;;8.73;8.00;;;;;;;7.65;53.37;101165.26;2459144;79;25621;-87
2022/01/13 09:46:33;;;;;;;10.75;8.50;;;;;;;7.67;53.35;101145.47;2428977;79;25809;-89
2022/01/13 09:49:55;;;;;;;8.10;7.35;;;;;;;7.72;53.37;101141.37;2399272;79;25832;-89
2022/01/13 09:53:19;;;;;;;9.25;8.35;;;;;;;7.76;53.36;101132.52;2406608;80;26347;-89
2022/01/13 09:56:41;;;;;;;9.00;8.10;;;;;;;7.79;53.36;101126.56;2458981;79;25628;-89
2022/01/13 10:00:08;;;;;;;8.98;7.17;;;;;;;7.81;53.34;101136.20;2456387;79;26728;-89
2022/01/13 10:03:30;;;;;;;12.68;9.20;;;;;;;7.85;53.33;101116.47;2460423;79;25677;-89
2022/01/13 10:06:53;;;;;;;8.65;7.35;;;;;;;7.88;53.35;101106.64;2430611;79;26331;-89
2022/01/13 10:10:20;;;;;;;9.63;7.58;;;;;;;7.90;53.33;101116.70;2399760;79;26069;-92
2022/01/13 10:13:51;;;;;;;9.18;8.03;;;;;;;7.92;53.31;101116.34;2426107;79;26384;-87
2022/01/13 10:36:27;;;;;;;8.50;7.05;;;;;;;8.00;53.24;101089.92;2434679;80;25553;-89
2022/01/13 10:45:23;;;;;;;;;;;;;;;8.03;53.26;101074.48;2413265;80;25792;-88
2022/01/13 10:49:04;;;;;;;8.95;6.95;;;;;;;8.07;53.26;101077.22;2406366;79;25654;-90
2022/01/13 10:53:03;;;;;;;9.10;7.85;;;;;;;8.06;53.28;101077.59;2362094;80;25768;-89
2022/01/13 10:56:25;;;;;;;8.68;7.08;;;;;;;8.09;53.27;101072.55;2408023;80;25819;-89
2022/01/13 11:16:42;;;;;;;8.10;6.67;;;;;;;8.18;53.31;101036.60;2224789;85;25811;-88
2022/01/13 11:20:20;;;;;;;6.97;6.37;;;;;;;8.20;53.32;101024.97;2281104;82;25738;-86
2022/01/13 11:23:47;;;;;;;7.62;6.92;;;;;;;8.24;53.27;101017.80;2285696;85;25697;-89
2022/01/13 11:27:09;;;;;;;7.47;6.67;;;;;;;8.24;53.31;100999.20;2286258;85;25983;-85
2022/01/13 11:30:30;;;;;;;7.55;6.92;;;;;;;8.26;53.29;100998.84;2295987;85;25812;-89
2022/01/13 11:33:54;;;;;;;7.40;6.72;;;;;;;8.28;53.34;100993.73;2271436;85;25839;-86
2022/01/13 11:37:18;;;;;;;7.85;6.53;;;;;;;8.30;53.31;100985.57;2292003;85;25694;-86
2022/01/13 11:40:46;;;;;;;7.87;7.08;;;;;;;8.31;53.34;100974.38;2291602;85;25725;-84
2022/01/13 11:44:17;;;;;;;9.28;6.47;;;;;;;8.33;53.32;100979.20;2249118;85;25715;-85
2022/01/13 11:47:42;;;;;;;6.75;5.95;;;;;;;8.36;53.30;100978.45;2253284;85;25918;-85
2022/01/13 11:51:15;;;;;;;8.88;6.67;;;;;;;8.38;53.30;100984.66;2287370;83;26371;-84
2022/01/13 11:54:39;;;;;;;6.40;5.80;;;;;;;8.38;53.28;100994.62;2400090;81;25969;-86
2022/01/13 11:58:18;;;;;;;6.03;5.53;;;;;;;8.39;53.32;100976.02;2403115;81;25766;-85
2022/01/13 12:01:42;;;;;;;6.30;5.62;;;;;;;8.41;53.26;100975.27;2417910;80;25922;-85
2022/01/13 12:05:17;;;;;;;6.70;6.10;;;;;;;8.44;53.24;100977.13;2429000;79;25703;-85
2022/01/13 12:08:45;;;;;;;8.03;6.92;;;;;;;8.45;53.23;100959.40;2383228;82;25679;-84
2022/01/13 12:12:09;;;;;;;9.55;7.83;;;;;;;8.37;53.73;100955.16;2416941;80;25771;-83
2022/01/13 12:15:30;;;;;;;7.90;7.10;;;;;;;8.27;54.17;100955.59;2437221;80;25676;-83
2022/01/13 12:19:05;;;;;;;9.00;7.55;;;;;;;8.22;54.43;100950.19;2439831;79;27001;-82
2022/01/13 12:22:34;;;;;;;;;;;;;;;8.15;54.73;100947.28;2442064;80;25616;-84
2022/01/13 12:25:47;;;;;;;9.23;8.10;;;;;;;8.10;55.03;100943.58;2417495;80;25940;-83
2022/01/13 12:29:21;;;;;;;9.38;7.75;;;;;;;8.04;55.26;100925.64;2432884;80;25681;-87
2022/01/13 12:32:53;;;;;;;11.00;7.97;;;;;;;8.01;55.45;100926.80;2432068;81;25640;-88
2022/01/13 12:36:23;;;;;;;7.97;7.00;;;;;;;7.96;55.68;100904.93;2414831;79;25942;-87
2022/01/13 12:39:49;;;;;;;9.30;7.47;;;;;;;7.94;55.90;100909.19;2353590;81;26257;-86
2022/01/13 12:46:58;;;;;;;7.50;6.60;;;;;;;7.94;56.05;100912.20;2380845;81;25759;-86
2022/01/13 12:50:25;;;;;;;7.70;5.40;;;;;;;8.04;56.44;100932.55;2311011;83;25967;-86
2022/01/13 12:53:50;;;;;;;6.67;5.97;;;;;;;8.12;58.18;100915.98;2351847;83;26256;-88
2022/01/13 12:57:11;;;;;;;6.08;5.08;;;;;;;8.27;59.79;100914.03;2339241;83;25782;-87
2022/01/13 13:00:33;;;;;;;5.62;4.45;;;;;;;8.47;60.56;100924.86;2331491;84;25734;-87
2022/01/13 13:04:11;;;;;;;5.35;4.85;;;;;;;8.59;61.52;100924.45;2378567;81;25742;-87
2022/01/13 13:07:32;;;;;;;7.70;5.40;;;;;;;8.72;61.18;100938.84;2364114;81;25799;-87
2022/01/13 13:11:00;;;;;;;5.65;5.00;;;;;;;8.81;62.28;100956.11;2391530;81;26334;-87
2022/01/13 13:18:26;;;;;;;;;;;;;;;9.03;63.11;100963.45;2405185;82;25629;-89
2022/01/13 13:21:52;;;;;;;5.28;4.78;;;;;;;9.23;64.27;100962.08;2418924;80;25626;-85
2022/01/13 13:25:10;;;;;;;4.83;4.00;;;;;;;9.40;64.41;100967.05;2408609;80;25690;-90
2022/01/13 13:28:39;;;;;;;5.60;5.03;;;;;;;9.50;63.50;100961.77;2415793;81;26296;-87
2022/01/13 13:32:16;;;;;;;5.60;4.90;;;;;;;9.56;64.29;100942.06;2408143;80;25591;-87
2022/01/13 13:35:35;;;;;;;6.47;5.17;;;;;;;9.56;63.27;100952.89;2427860;80;26500;-87
2022/01/13 13:39:07;;;;;;;6.58;5.45;;;;;;;9.58;63.59;100966.83;2391205;81;26024;-88
2022/01/13 13:42:31;;;;;;;6.55;5.42;;;;;;;9.65;63.75;100958.02;2410773;81;25609;-86
2022/01/13 13:46:02;;;;;;;5.87;5.08;;;;;;;9.71;63.58;100952.13;2385067;81;26893;-88
2022/01/13 13:49:24;;;;;;;8.83;6.37;;;;;;;9.66;62.75;100953.28;2423118;81;25617;-89
2022/01/13 13:52:48;;;;;;;6.47;5.78;;;;;;;9.60;62.17;100941.76;2410113;80;25626;-88
2022/01/13 13:56:10;;;;;;;6.67;6.03;;;;;;;9.57;62.29;100946.84;2413717;81;25662;-87
2022/01/13 13:59:45;;;;;;;8.10;5.95;;;;;;;9.62;62.37;100949.22;2407939;81;25809;-88
2022/01/13 14:03:07;;;;;;;6.20;5.60;;;;;;;9.60;61.99;100943.05;2430197;81;25562;-88
2022/01/13 14:06:43;;;;;;;6.30;5.45;;;;;;;9.64;61.98;100941.03;2417992;81;25713;-88
2022/01/13 14:10:19;;;;;;;6.65;5.83;;;;;;;9.64;62.36;100915.00;2404036;81;25841;-88
2022/01/13 14:13:40;;;;;;;7.90;6.85;;;;;;;9.67;62.20;100906.88;2412759;80;25703;-89
2022/01/13 14:17:02;;;;;;;6.08;5.42;;;;;;;9.63;61.52;100885.48;2418808;81;25789;-85
2022/01/13 14:20:28;;;;;;;5.42;4.92;;;;;;;9.61;61.91;100882.34;2417621;81;25613;-86
2022/01/13 14:23:58;;;;;;;5.72;5.05;;;;;;;9.63;61.38;100883.30;2402073;80;25948;-88
2022/01/13 14:27:14;;;;;;;11.10;6.12;;;;;;;9.60;61.31;100894.90;2400195;81;25673;-87
2022/01/13 14:30:45;;;;;;;8.13;5.08;;;;;;;9.58;61.01;100890.04;2413342;81;25662;-86
2022/01/13 14:34:06;;;;;;;12.10;6.53;;;;;;;9.58;61.18;100915.65;2423988;81;25663;-87
2022/01/13 14:37:29;;;;;;;6.03;5.40;;;;;;;9.61;61.26;100890.16;2398850;81;25685;-86
2022/01/13 14:40:51;;;;;;;9.33;5.87;;;;;;;9.59;61.13;100909.63;2427772;81;25650;-86
2022/01/13 14:44:21;;;;;;;7.37;5.40;;;;;;;9.58;61.32;100899.15;2427020;81;25621;-85
2022/01/13 14:47:44;;;;;;;10.38;6.62;;;;;;;9.55;61.09;100902.55;2424025;81;25712;-87
2022/01/13 14:51:18;;;;;;;9.48;5.78;;;;;;;9.51;61.12;100908.88;2380214;81;25690;-85
2022/01/13 14:54:39;;;;;;;7.87;6.00;;;;;;;9.49;61.15;100919.66;2391066;81;25835;-85
2022/01/13 14:58:01;;;;;;;10.30;6.28;;;;;;;9.45;61.13;100923.45;2424541;81;25680;-86
2022/01/13 15:01:22;;;;;;;6.30;4.72;;;;;;;9.42;61.05;100914.23;2427524;81;25989;-86
2022/01/13 15:04:44;;;;;;;6.50;5.30;;;;;;;9.62;63.46;100917.98;2403817;81;25597;-88
2022/01/13 15:08:06;;;;;;;8.08;5.03;;;;;;;9.85;62.29;100918.34;2425735;80;25729;-91
2022/01/13 15:11:32;;;;;;;8.53;5.12;;;;;;;9.81;61.66;100916.89;2416833;80;26488;-86
2022/01/13 15:14:53;;;;;;;7.50;4.65;;;;;;;9.72;61.45;100912.66;2411309;81;25883;-86
2022/01/13 15:18:17;;;;;;;8.53;5.40;;;;;;;9.62;61.26;100903.66;2414756;81;26377;-88
2022/01/13 15:21:39;;;;;;;8.03;5.12;;;;;;;9.54;61.21;100903.78;2404680;81;25697;-87
2022/01/13 15:25:10;;;;;;;8.98;4.85;;;;;;;9.48;61.04;100907.45;2402289;81;25664;-87
2022/01/13 15:28:26;;;;;;;10.68;5.53;;;;;;;9.39;60.99;100890.70;2370892;80;26137;-91
2022/01/13 15:31:56;;;;;;;5.97;5.35;;;;;;;9.35;60.95;100878.83;2424223;80;25727;-94
2022/01/13 15:35:22;;;;;;;9.03;5.50;;;;;;;9.29;60.87;100877.30;2432425;80;25594;-90
2022/01/13 15:38:43;;;;;;;8.20;4.70;;;;;;;9.27;60.78;100871.14;2422831;80;25718;-88
2022/01/13 15:42:10;;;;;;;6.15;5.40;;;;;;;9.20;60.76;100868.30;2384728;80;25980;-89
2022/01/13 15:45:31;;;;;;;5.55;4.67;;;;;;;9.16;60.68;100862.52;2344859;82;25922;-91
2022/01/13 15:48:54;;;;;;;5.33;4.83;;;;;;;9.12;60.64;100875.38;2364191;82;25627;-87
2022/01/13 15:52:16;;;;;;;6.40;5.40;;;;;;;9.08;60.63;100868.25;2391211;81;25710;-88
2022/01/13 15:55:48;;;;;;;7.05;5.55;;;;;;;9.06;60.61;100879.04;2381958;82;25688;-85
2022/01/13 15:59:04;;;;;;;5.20;4.47;;;;;;;9.02;60.57;100883.66;2381971;81;25840;-78
2022/01/13 16:02:28;;;;;;;8.05;5.50;;;;;;;9.03;63.87;100886.72;2385602;81;25145;-91
2022/01/13 16:05:49;;;;;;;8.55;5.42;;;;;;;9.42;63.60;100891.23;2385065;82;25761;-89
2022/01/13 16:09:10;;;;;;;6.00;5.25;;;;;;;9.52;62.65;100881.63;2369057;82;25602;-87
2022/01/13 16:12:37;;;;;;;6.35;4.65;;;;;;;9.53;62.30;100889.00;2379292;81;25575;-92
2022/01/13 16:15:58;;;;;;;5.70;5.10;;;;;;;9.51;62.24;100887.63;2374499;82;25657;-87
2022/01/13 16:19:19;;;;;;;6.47;5.08;;;;;;;9.52;62.12;100885.91;2385256;82;25662;-88
2022/01/13 16:22:42;;;;;;;8.00;5.42;;;;;;;9.51;61.98;100878.52;2375115;82;25765;-86
2022/01/13 16:26:03;;;;;;;7.30;5.28;;;;;;;9.51;61.94;100873.31;2374510;82;25710;-88
2022/01/13 16:37:35;;;;;;;6.45;5.17;;;;;;;9.51;61.64;100868.53;2293210;83;25918;-92
2022/01/13 16:40:58;;;;;;;8.55;4.83;;;;;;;9.49;61.64;100875.42;2290227;86;25742;-86
2022/01/13 16:44:20;;;;;;;6.53;5.60;;;;;;;9.50;61.58;100873.27;2287581;85;25778;-86
2022/01/13 16:56:08;;;;;;;6.17;5.08;;;;;;;9.48;61.45;100854.11;2186238;88;25749;-91
2022/01/13 16:59:55;;;;;;;6.28;4.58;;;;;;;9.47;61.35;100844.12;2186837;89;25760;-86
2022/01/13 17:03:19;;;;;;;5.30;4.80;;;;;;;9.46;61.35;100848.86;2193422;89;26043;-86
2022/01/13 17:06:44;;;;;;;5.70;5.20;;;;;;;9.46;61.33;100841.05;2199531;89;25794;-87
2022/01/13 17:10:07;;;;;;;6.10;5.05;;;;;;;9.45;61.33;100832.36;2186451;89;25770;-87
2022/01/13 17:13:30;;;;;;;6.05;5.40;;;;;;;9.46;61.30;100841.05;2189753;89;25789;-88
2022/01/13 17:16:53;;;;;;;5.97;4.85;;;;;;;9.45;61.27;100836.27;2179922;89;25760;-86
2022/01/13 17:20:18;;;;;;;6.47;5.87;;;;;;;9.46;61.25;100835.84;2154920;88;25730;-89
2022/01/13 17:23:43;;;;;;;7.35;5.17;;;;;;;9.45;61.20;100832.78;2180929;88;25691;-90
2022/01/13 17:27:20;;;;;;;5.95;5.30;;;;;;;9.43;61.20;100826.20;2186055;88;25858;-87
2022/01/13 17:31:03;;;;;;;6.03;5.45;;;;;;;9.43;61.19;100832.71;2211357;85;26119;-92
2022/01/13 17:34:36;;;;;;;5.53;4.92;;;;;;;9.42;61.13;100833.98;2300695;85;26267;-87